Time;durP1;ratioP1;P1;durP2;ratioP2;P2;SDS_P1;SDS_P2;PMS_P1;PMS_P2;Temp;Humidity;BMP_temperature;BMP_pressure;BME280_temperature;BME280_humidity;BME280_pressure;Samples;Min_cycle;Max_cycle;Signal;HPM_P1;HPM_P2
2021/07/09 00:01:58;;;;;;;6.82;5.53;;;;;;;18.52;66.79;102192.50;5073971;28;20076;-41
2021/07/09 00:04:24;;;;;;;;;;;;;;;18.63;65.92;102188.81;5073238;28;20024;-41
2021/07/09 00:06:51;;;;;;;7.00;5.28;;;;;;;18.42;66.46;102193.19;5073357;28;19911;-41
2021/07/09 00:09:17;;;;;;;5.70;5.10;;;;;;;18.32;66.19;102189.47;5073520;28;20471;-40
2021/07/09 00:11:44;;;;;;;;;;;;;;;18.46;66.02;102183.41;5073664;28;20021;-40
2021/07/09 00:14:10;;;;;;;;;;;;;;;18.45;65.89;102189.97;5073692;28;19951;-40
2021/07/09 00:16:37;;;;;;;6.82;5.00;;;;;;;18.26;66.48;102189.38;5073586;28;20432;-40
2021/07/09 00:19:06;;;;;;;7.82;5.05;;;;;;;18.19;66.48;102188.72;5073218;28;20025;-40
2021/07/09 00:21:33;;;;;;;6.78;5.43;;;;;;;18.28;66.25;102186.41;5073473;28;20102;-40
2021/07/09 00:24:00;;;;;;;7.72;5.20;;;;;;;18.25;66.41;102186.88;5073096;28;20025;-40
2021/07/09 00:26:26;;;;;;;8.02;5.60;;;;;;;18.18;66.51;102187.06;5073660;28;20041;-40
2021/07/09 00:28:52;;;;;;;6.65;5.88;;;;;;;18.23;66.99;102189.06;5073416;28;20016;-40
2021/07/09 00:31:17;;;;;;;;;;;;;;;18.36;66.03;102194.19;5074376;28;20520;-40
2021/07/09 00:33:43;;;;;;;8.50;5.70;;;;;;;18.16;66.01;102193.88;5077181;28;19912;-40
2021/07/09 00:36:08;;;;;;;;;;;;;;;18.30;65.91;102192.47;5077680;28;20029;-41
2021/07/09 00:38:33;;;;;;;7.37;5.90;;;;;;;18.04;66.34;102190.38;5076842;28;19912;-41
2021/07/09 00:40:58;;;;;;;;;;;;;;;18.23;65.82;102194.53;5076922;28;20298;-40
2021/07/09 00:43:24;;;;;;;5.82;4.72;;;;;;;18.12;66.47;102188.06;5076718;28;20045;-40
2021/07/09 00:45:49;;;;;;;;;;;;;;;18.25;65.89;102187.75;5077128;28;20060;-40
2021/07/09 00:48:14;;;;;;;7.05;5.53;;;;;;;18.13;66.72;102181.50;5076636;28;19912;-40
2021/07/09 00:50:40;;;;;;;;;;;;;;;18.26;65.68;102196.78;5077130;28;20016;-41
2021/07/09 00:53:06;;;;;;;7.25;5.88;;;;;;;18.17;66.97;102193.63;5076572;28;19908;-41
2021/07/09 00:55:32;;;;;;;9.13;6.60;;;;;;;18.11;66.95;102182.84;5076801;28;20366;-40
2021/07/09 00:58:00;;;;;;;;;;;;;;;18.25;66.30;102187.75;5076943;28;20016;-40
2021/07/09 01:00:27;;;;;;;8.95;6.53;;;;;;;17.95;67.46;102185.31;5077191;28;19998;-40
2021/07/09 01:02:52;;;;;;;11.35;6.97;;;;;;;17.91;67.64;102181.44;5076103;28;20461;-40
2021/07/09 01:05:18;;;;;;;9.95;7.57;;;;;;;18.00;67.35;102190.03;5076173;28;20099;-40
2021/07/09 01:07:43;;;;;;;;;;;;;;;18.14;66.69;102193.28;5076664;28;20397;-40
2021/07/09 01:10:12;;;;;;;8.43;6.78;;;;;;;17.85;67.59;102195.25;5076508;28;19937;-40
2021/07/09 01:12:39;;;;;;;9.35;7.13;;;;;;;17.92;67.92;102193.22;5076121;28;20024;-40
2021/07/09 01:15:10;;;;;;;11.10;7.30;;;;;;;17.84;67.82;102182.66;5076682;28;20056;-40
2021/07/09 01:17:36;;;;;;;9.25;7.03;;;;;;;17.76;68.48;102186.59;5076137;28;20025;-40
2021/07/09 01:20:04;;;;;;;9.38;7.10;;;;;;;17.70;68.69;102185.66;5076095;28;20021;-40
2021/07/09 01:22:31;;;;;;;8.77;6.72;;;;;;;17.65;69.73;102177.38;5076225;28;20024;-40
2021/07/09 01:24:57;;;;;;;9.57;7.45;;;;;;;17.60;69.18;102180.00;5076471;28;20111;-41
2021/07/09 01:27:22;;;;;;;9.02;7.28;;;;;;;17.56;70.03;102180.75;5076007;28;20455;-40
2021/07/09 01:29:48;;;;;;;;;;;;;;;17.73;67.90;102187.13;5076400;28;20024;-40
2021/07/09 01:32:13;;;;;;;9.23;7.60;;;;;;;17.53;69.31;102186.72;5076145;28;19935;-40
2021/07/09 01:34:38;;;;;;;;;;;;;;;17.68;67.97;102190.56;5075581;28;20111;-40
2021/07/09 01:37:14;;;;;;;9.32;7.22;;;;;;;17.36;70.75;102189.38;5075501;28;19977;-40
2021/07/09 01:39:41;;;;;;;9.57;7.85;;;;;;;17.27;71.02;102190.84;5075353;28;20017;-40
2021/07/09 01:42:06;;;;;;;9.80;8.02;;;;;;;17.16;71.83;102187.91;5075481;28;20460;-40
2021/07/09 01:44:33;;;;;;;11.27;8.52;;;;;;;17.17;72.10;102186.84;5075086;28;20107;-40
2021/07/09 01:46:59;;;;;;;10.88;8.00;;;;;;;17.11;72.04;102186.97;5075856;28;20342;-40
2021/07/09 01:49:24;;;;;;;;;;;;;;;17.31;70.05;102181.09;5075891;28;20028;-40
2021/07/09 01:51:50;;;;;;;10.43;8.60;;;;;;;16.98;72.39;102188.94;5075515;28;19905;-40
2021/07/09 01:54:16;;;;;;;;;;;;;;;17.17;69.96;102181.38;5075594;28;20739;-40
2021/07/09 01:56:41;;;;;;;8.93;7.82;;;;;;;16.88;72.76;102182.41;5075970;28;19934;-40
2021/07/09 01:59:06;;;;;;;9.77;8.10;;;;;;;16.80;73.15;102188.25;5075411;28;20451;-40
2021/07/09 02:01:31;;;;;;;;;;;;;;;17.05;70.58;102185.22;5076574;28;20040;-40
2021/07/09 02:03:57;;;;;;;10.90;8.87;;;;;;;16.63;73.38;102179.91;5074920;28;19955;-40
2021/07/09 02:06:22;;;;;;;11.27;8.38;;;;;;;16.72;73.31;102182.06;5075797;28;20259;-40
2021/07/09 02:08:47;;;;;;;11.18;8.85;;;;;;;16.69;73.36;102185.28;5074839;28;20020;-40
2021/07/09 02:11:12;;;;;;;;;;;;;;;16.91;71.43;102188.22;5075912;28;20035;-40
2021/07/09 02:13:38;;;;;;;10.07;8.48;;;;;;;16.66;73.58;102182.19;5075537;28;19908;-41
2021/07/09 02:16:03;;;;;;;;;;;;;;;16.85;71.54;102172.78;5075775;28;20177;-41
2021/07/09 02:18:28;;;;;;;10.38;8.13;;;;;;;16.63;73.47;102175.28;5074931;28;19908;-40
2021/07/09 02:20:57;;;;;;;12.82;9.18;;;;;;;16.66;73.50;102174.81;5075203;28;20111;-40
2021/07/09 02:23:22;;;;;;;12.38;9.15;;;;;;;16.62;73.60;102168.16;5074789;28;20020;-40
2021/07/09 02:25:48;;;;;;;10.98;8.57;;;;;;;16.60;73.92;102173.03;5074918;28;20050;-40
2021/07/09 02:28:13;;;;;;;10.45;8.45;;;;;;;16.60;73.51;102175.78;5074490;28;20062;-40
2021/07/09 02:30:39;;;;;;;10.57;8.25;;;;;;;16.54;73.79;102179.44;5075218;28;20115;-40
2021/07/09 02:33:04;;;;;;;;;;;;;;;16.74;71.68;102179.13;5075370;28;20024;-40
2021/07/09 02:35:33;;;;;;;10.13;8.43;;;;;;;16.41;74.51;102175.06;5075147;28;19908;-40
2021/07/09 02:37:59;;;;;;;9.30;8.13;;;;;;;16.29;74.98;102181.59;5074223;28;20017;-40
2021/07/09 02:40:27;;;;;;;9.35;8.25;;;;;;;16.21;75.27;102189.06;5074215;28;20035;-40
2021/07/09 02:42:56;;;;;;;9.35;8.02;;;;;;;16.18;75.71;102185.97;5074134;28;20070;-40
2021/07/09 02:45:22;;;;;;;12.60;9.73;;;;;;;16.14;76.32;102191.06;5074697;28;20108;-40
2021/07/09 02:47:48;;;;;;;11.57;8.73;;;;;;;16.18;75.92;102184.06;5074390;28;20025;-40
2021/07/09 02:50:17;;;;;;;11.40;9.98;;;;;;;16.11;76.70;102191.56;5075141;28;20028;-40
2021/07/09 02:52:42;;;;;;;11.98;9.55;;;;;;;16.06;76.14;102188.69;5073806;28;20039;-40
2021/07/09 02:55:08;;;;;;;;;;;;;;;16.33;73.90;102193.69;5073469;28;20033;-40
2021/07/09 02:57:35;;;;;;;10.55;9.25;;;;;;;16.12;75.73;102195.94;5073813;28;19908;-40
2021/07/09 03:00:00;;;;;;;12.18;9.27;;;;;;;16.08;76.72;102197.47;5074060;28;20059;-40
2021/07/09 03:02:26;;;;;;;;;;;;;;;16.30;74.17;102203.19;5074548;28;20060;-40
2021/07/09 03:04:52;;;;;;;11.63;9.52;;;;;;;16.02;76.39;102195.69;5074411;28;20007;-40
2021/07/09 03:07:17;;;;;;;10.90;9.13;;;;;;;16.02;76.25;102192.13;5074574;28;20020;-40
2021/07/09 03:09:43;;;;;;;11.35;9.95;;;;;;;15.97;76.50;102187.38;5074828;28;20032;-40
2021/07/09 03:12:08;;;;;;;;;;;;;;;16.17;74.18;102187.88;5074023;28;20499;-40
2021/07/09 03:14:34;;;;;;;11.50;9.35;;;;;;;15.93;76.71;102194.34;5074631;28;19969;-40
2021/07/09 03:17:00;;;;;;;12.55;9.52;;;;;;;15.94;76.78;102198.75;5074216;28;20064;-40
2021/07/09 03:19:25;;;;;;;;;;;;;;;16.14;74.44;102193.78;5074301;28;20056;-40
2021/07/09 03:21:50;;;;;;;12.57;9.37;;;;;;;15.90;76.90;102183.91;5074207;28;19962;-40
2021/07/09 03:24:16;;;;;;;;;;;;;;;16.10;74.34;102178.13;5074816;28;20024;-40
2021/07/09 03:26:41;;;;;;;11.77;8.93;;;;;;;15.90;76.58;102179.28;5074418;28;20355;-40
2021/07/09 03:29:07;;;;;;;12.15;9.85;;;;;;;15.84;76.83;102176.66;5073719;28;20357;-40
2021/07/09 03:31:32;;;;;;;;;;;;;;;16.08;74.57;102177.53;5074711;28;20035;-40
2021/07/09 03:33:59;;;;;;;12.15;9.02;;;;;;;15.82;77.03;102170.63;5073532;28;19927;-40
2021/07/09 03:36:27;;;;;;;;;;;;;;;16.03;74.41;102175.50;5074686;28;20372;-40
2021/07/09 03:38:54;;;;;;;12.00;9.20;;;;;;;15.71;77.41;102183.13;5074229;28;19955;-40
2021/07/09 03:41:19;;;;;;;13.65;9.70;;;;;;;15.65;77.78;102174.00;5073563;28;20556;-40
2021/07/09 03:43:45;;;;;;;11.25;9.43;;;;;;;15.74;77.55;102177.22;5073624;28;20091;-40
2021/07/09 03:46:11;;;;;;;13.98;9.73;;;;;;;15.65;78.37;102186.81;5074195;28;20103;-40
2021/07/09 03:48:36;;;;;;;12.20;9.35;;;;;;;15.58;78.03;102181.44;5074064;28;20056;-40
2021/07/09 03:51:04;;;;;;;14.65;10.65;;;;;;;15.54;78.10;102180.22;5073354;28;20032;-40
2021/07/09 03:53:30;;;;;;;10.65;9.00;;;;;;;15.52;78.32;102179.63;5073493;28;20021;-40
2021/07/09 03:55:55;;;;;;;;;;;;;;;15.75;76.13;102175.34;5074484;28;20032;-40
2021/07/09 03:58:20;;;;;;;12.47;9.47;;;;;;;15.50;78.38;102178.19;5073519;28;19970;-41
2021/07/09 04:00:46;;;;;;;12.90;9.83;;;;;;;15.50;78.39;102186.38;5074001;28;20357;-40
2021/07/09 04:03:11;;;;;;;13.73;9.80;;;;;;;15.58;78.38;102177.88;5073413;28;20277;-40
2021/07/09 04:05:36;;;;;;;14.43;10.17;;;;;;;15.59;78.03;102185.81;5073676;28;20430;-40
2021/07/09 04:08:02;;;;;;;11.23;9.93;;;;;;;15.58;78.19;102186.06;5077094;28;20016;-40
2021/07/09 04:10:28;;;;;;;12.73;10.05;;;;;;;15.54;78.33;102187.56;5077421;28;20025;-40
2021/07/09 04:12:53;;;;;;;;;;;;;;;15.75;76.41;102189.78;5078337;28;20027;-40
2021/07/09 04:15:20;;;;;;;10.87;9.53;;;;;;;15.52;78.36;102184.22;5078171;28;19912;-40
2021/07/09 04:17:45;;;;;;;13.18;10.38;;;;;;;15.51;78.42;102188.03;5077499;28;20273;-40
2021/07/09 04:20:11;;;;;;;;;;;;;;;15.71;76.30;102188.59;5077905;28;20021;-40
2021/07/09 04:22:36;;;;;;;13.73;10.23;;;;;;;15.49;78.88;102196.44;5077067;28;19915;-40
2021/07/09 04:25:03;;;;;;;12.32;10.63;;;;;;;15.49;78.94;102191.00;5078031;28;20041;-40
2021/07/09 04:27:29;;;;;;;15.50;10.63;;;;;;;15.52;78.79;102189.69;5075850;28;20024;-40
2021/07/09 04:29:54;;;;;;;;;;;;;;;15.69;77.06;102194.28;5078080;28;20033;-40
2021/07/09 04:32:19;;;;;;;13.15;9.95;;;;;;;15.51;79.13;102191.56;5077248;28;19962;-40
2021/07/09 04:34:45;;;;;;;13.53;10.97;;;;;;;15.59;79.14;102195.88;5076935;28;20028;-40
2021/07/09 04:37:10;;;;;;;12.63;9.83;;;;;;;15.55;79.42;102184.59;5077245;28;20255;-40
2021/07/09 04:39:37;;;;;;;12.05;9.60;;;;;;;15.57;79.76;102187.13;5076979;28;20020;-40
2021/07/09 04:42:06;;;;;;;18.13;10.75;;;;;;;15.59;79.48;102190.44;5077074;28;20024;-40
2021/07/09 04:44:32;;;;;;;13.63;10.90;;;;;;;15.61;79.48;102188.28;5077287;28;20025;-40
2021/07/09 04:46:58;;;;;;;12.55;10.60;;;;;;;15.70;79.24;102186.94;5076663;28;20046;-40
2021/07/09 04:49:23;;;;;;;;;;;;;;;15.96;77.61;102191.19;5077686;28;20032;-40
2021/07/09 04:51:49;;;;;;;12.35;9.95;;;;;;;15.94;78.26;102193.28;5076638;28;19967;-40
2021/07/09 04:54:15;;;;;;;;;;;;;;;16.17;76.73;102198.78;5076992;28;20091;-41
2021/07/09 04:56:40;;;;;;;13.05;9.73;;;;;;;16.15;77.74;102200.94;5076534;28;20370;-40
2021/07/09 04:59:05;;;;;;;12.40;9.97;;;;;;;16.22;76.97;102196.19;5076489;28;20032;-41
2021/07/09 05:01:31;;;;;;;11.40;10.03;;;;;;;16.38;76.62;102199.28;5077225;28;20579;-40
2021/07/09 05:03:58;;;;;;;13.95;11.27;;;;;;;16.48;76.18;102191.31;5076381;28;20060;-40
2021/07/09 05:06:23;;;;;;;14.98;10.65;;;;;;;16.44;75.88;102187.41;5076896;28;20025;-40
2021/07/09 05:08:49;;;;;;;;;;;;;;;16.72;75.51;102201.19;5077553;28;20024;-40
2021/07/09 05:11:14;;;;;;;12.57;10.03;;;;;;;16.69;74.52;102193.47;5076031;28;19904;-40
2021/07/09 05:13:39;;;;;;;13.63;10.10;;;;;;;16.66;74.56;102196.66;5075908;28;20342;-40
2021/07/09 05:16:06;;;;;;;13.57;10.02;;;;;;;16.74;74.84;102211.91;5077079;28;20275;-40
2021/07/09 05:18:31;;;;;;;13.32;10.02;;;;;;;16.73;74.43;102202.03;5076912;28;20401;-40
2021/07/09 05:20:57;;;;;;;;;;;;;;;16.94;74.24;102198.69;5076491;28;20020;-40
2021/07/09 05:23:23;;;;;;;12.80;10.88;;;;;;;16.72;74.77;102200.38;5076063;28;19908;-40
2021/07/09 05:25:48;;;;;;;;;;;;;;;17.02;74.04;102193.91;5076739;28;20040;-40
2021/07/09 05:28:13;;;;;;;12.73;10.18;;;;;;;17.05;73.12;102193.44;5075922;28;19999;-40
2021/07/09 05:30:39;;;;;;;;;;;;;;;17.19;73.37;102195.63;5076637;28;20479;-40
2021/07/09 05:33:04;;;;;;;13.38;10.05;;;;;;;17.08;72.36;102196.50;5075616;28;19991;-40
2021/07/09 05:35:31;;;;;;;;;;;;;;;17.28;72.64;102196.09;5076919;28;20111;-40
2021/07/09 05:37:57;;;;;;;12.37;9.90;;;;;;;17.16;71.91;102196.13;5075488;28;19908;-40
2021/07/09 05:40:22;;;;;;;13.13;10.63;;;;;;;17.33;72.07;102192.63;5075757;28;20024;-40
2021/07/09 05:42:47;;;;;;;11.32;9.05;;;;;;;17.34;72.02;102197.84;5075679;28;20020;-40
2021/07/09 05:45:13;;;;;;;11.37;8.77;;;;;;;17.40;72.13;102196.03;5075709;28;20036;-40
2021/07/09 05:47:39;;;;;;;9.85;8.73;;;;;;;17.51;70.97;102192.41;5075506;28;20354;-40
2021/07/09 05:50:05;;;;;;;10.55;8.27;;;;;;;17.49;71.43;102197.31;5076153;28;20032;-40
2021/07/09 05:52:30;;;;;;;10.80;8.30;;;;;;;17.63;70.87;102195.94;5075384;28;20017;-40
2021/07/09 05:54:56;;;;;;;11.18;8.75;;;;;;;17.73;70.74;102193.41;5074515;28;20361;-40
2021/07/09 05:57:21;;;;;;;;;;;;;;;17.95;70.72;102195.44;5075624;28;20376;-40
2021/07/09 05:59:46;;;;;;;11.97;8.03;;;;;;;17.91;69.93;102191.53;5075053;28;19908;-40
2021/07/09 06:02:11;;;;;;;;;;;;;;;18.07;70.11;102201.66;5076038;28;20031;-40
2021/07/09 06:04:37;;;;;;;9.67;8.17;;;;;;;17.99;70.09;102193.84;5075243;28;19904;-40
2021/07/09 06:07:02;;;;;;;;;;;;;;;18.16;70.20;102199.34;5075954;28;20572;-40
2021/07/09 06:09:29;;;;;;;10.23;7.72;;;;;;;18.09;69.84;102193.19;5075149;28;19926;-40
2021/07/09 06:11:54;;;;;;;10.90;8.52;;;;;;;18.10;69.93;102192.94;5075632;28;20031;-40
2021/07/09 06:14:20;;;;;;;8.85;7.55;;;;;;;18.13;70.29;102194.38;5075082;28;20441;-40
2021/07/09 06:16:46;;;;;;;;;;;;;;;18.32;70.25;102200.41;5075756;28;20467;-40
2021/07/09 06:19:11;;;;;;;9.43;7.70;;;;;;;18.20;70.17;102195.00;5075706;28;19905;-40
2021/07/09 06:21:36;;;;;;;9.85;7.63;;;;;;;18.22;70.08;102201.91;5074900;28;20377;-40
2021/07/09 06:24:02;;;;;;;;;;;;;;;18.43;70.03;102207.72;5075222;28;20020;-40
2021/07/09 06:26:27;;;;;;;10.77;7.53;;;;;;;18.35;70.27;102211.72;5075840;28;19947;-40
2021/07/09 06:28:53;;;;;;;9.60;7.38;;;;;;;18.34;70.06;102206.47;5074243;28;20025;-40
2021/07/09 06:31:19;;;;;;;10.95;8.50;;;;;;;18.37;70.07;102206.81;5074927;28;20032;-40
2021/07/09 06:33:44;;;;;;;10.68;7.68;;;;;;;18.40;69.89;102211.78;5074668;28;20017;-40
2021/07/09 06:36:09;;;;;;;;;;;;;;;18.60;69.94;102219.50;5075403;28;20024;-40
2021/07/09 06:38:35;;;;;;;9.77;7.37;;;;;;;18.47;70.37;102211.59;5075324;28;19905;-40
2021/07/09 06:41:00;;;;;;;;;;;;;;;18.74;69.77;102212.59;5074960;28;20305;-40
2021/07/09 06:43:26;;;;;;;12.80;7.20;;;;;;;18.59;70.07;102209.59;5074459;28;19962;-41
2021/07/09 06:45:51;;;;;;;;;;;;;;;18.85;69.88;102223.69;5075454;28;20025;-40
2021/07/09 06:48:16;;;;;;;9.57;7.00;;;;;;;18.68;70.40;102208.09;5074370;28;19909;-40
2021/07/09 06:50:41;;;;;;;;;;;;;;;18.87;70.13;102213.31;5075082;28;20052;-40
2021/07/09 06:53:07;;;;;;;8.70;6.85;;;;;;;18.85;69.42;102221.78;5074237;28;20256;-40
2021/07/09 06:55:32;;;;;;;;;;;;;;;19.01;69.41;102217.34;5075318;28;20035;-40
2021/07/09 06:57:58;;;;;;;8.35;6.60;;;;;;;18.94;69.56;102213.97;5074205;28;19908;-40
2021/07/09 07:00:25;;;;;;;;;;;;;;;19.13;69.08;102220.78;5075110;28;20492;-40
2021/07/09 07:02:50;;;;;;;8.38;5.75;;;;;;;19.10;68.96;102225.94;5073860;28;19993;-40
2021/07/09 07:05:16;;;;;;;;;;;;;;;19.24;68.84;102219.00;5074873;28;20103;-40
2021/07/09 07:07:42;;;;;;;6.50;4.70;;;;;;;19.17;66.46;102215.59;5074074;28;19915;-40
2021/07/09 07:10:08;;;;;;;;;;;;;;;19.35;67.51;102222.69;5074490;28;20025;-40
2021/07/09 07:12:33;;;;;;;6.18;4.93;;;;;;;19.21;66.29;102225.81;5073990;28;19919;-40
2021/07/09 07:14:59;;;;;;;;;;;;;;;19.37;66.02;102228.72;5074754;28;20021;-40
2021/07/09 07:17:24;;;;;;;6.35;3.80;;;;;;;19.35;65.26;102230.91;5074484;28;20304;-40
2021/07/09 07:19:49;;;;;;;;;;;;;;;19.49;66.41;102229.44;5074294;28;20107;-40
2021/07/09 07:22:15;;;;;;;7.30;4.07;;;;;;;19.44;64.56;102227.47;5073888;28;20348;-40
2021/07/09 07:24:40;;;;;;;;;;;;;;;19.59;65.83;102229.53;5074197;28;20099;-40
2021/07/09 07:27:05;;;;;;;8.13;5.30;;;;;;;19.48;65.35;102234.09;5073449;28;19908;-40
2021/07/09 07:29:31;;;;;;;;;;;;;;;19.67;66.08;102220.06;5074217;28;20263;-40
2021/07/09 07:31:56;;;;;;;8.23;5.38;;;;;;;19.64;65.72;102215.91;5073784;28;19912;-40
2021/07/09 07:34:21;;;;;;;;;;;;;;;19.80;66.41;102223.19;5073851;28;20020;-41
2021/07/09 07:36:47;;;;;;;8.40;5.47;;;;;;;19.77;64.96;102218.25;5073714;28;19908;-41
2021/07/09 07:39:13;;;;;;;7.57;5.50;;;;;;;19.69;64.87;102213.22;5073369;28;20179;-41
2021/07/09 07:41:38;;;;;;;;;;;;;;;19.86;63.89;102215.00;5073268;28;20517;-40
2021/07/09 07:44:04;;;;;;;7.95;5.07;;;;;;;19.76;64.64;102219.34;5073549;28;19917;-41
2021/07/09 07:46:30;;;;;;;9.93;5.57;;;;;;;19.61;64.68;102210.09;5073929;28;20048;-40
2021/07/09 07:48:56;;;;;;;;;;;;;;;19.84;65.39;102212.53;5074832;28;20063;-40
2021/07/09 07:51:21;;;;;;;6.50;5.07;;;;;;;19.86;64.59;102215.00;5073872;28;20007;-40
2021/07/09 07:53:47;;;;;;;;;;;;;;;20.01;64.90;102210.50;5074005;28;20036;-41
2021/07/09 07:56:12;;;;;;;9.38;6.05;;;;;;;19.99;64.14;102206.34;5073782;28;20448;-41
2021/07/09 07:58:38;;;;;;;;;;;;;;;20.16;65.10;102218.06;5073610;28;20028;-40
2021/07/09 08:01:04;;;;;;;10.68;6.47;;;;;;;20.20;64.70;102205.44;5073643;28;19912;-40
2021/07/09 08:03:30;;;;;;;7.97;6.13;;;;;;;20.21;64.24;102209.03;5073019;28;20028;-41
2021/07/09 08:05:55;;;;;;;;;;;;;;;20.27;64.69;102210.72;5073580;28;20040;-41
2021/07/09 08:08:20;;;;;;;9.13;6.93;;;;;;;20.08;65.62;102218.53;5073144;28;19955;-40
2021/07/09 08:10:45;;;;;;;10.80;7.03;;;;;;;19.95;64.97;102211.53;5073908;28;20055;-40
2021/07/09 08:13:11;;;;;;;;;;;;;;;20.12;64.66;102216.09;5074564;28;20024;-40
2021/07/09 08:15:36;;;;;;;10.75;7.03;;;;;;;20.16;64.09;102217.22;5073356;28;19934;-40
2021/07/09 08:18:01;;;;;;;;;;;;;;;20.31;64.26;102215.41;5073463;28;20013;-41
2021/07/09 08:20:28;;;;;;;7.40;5.95;;;;;;;20.15;64.25;102210.88;5073237;28;19909;-40
2021/07/09 08:22:53;;;;;;;10.85;7.15;;;;;;;20.31;64.95;102214.59;5072872;28;20033;-40
2021/07/09 08:25:19;;;;;;;;;;;;;;;20.48;64.74;102215.28;5073804;28;20049;-40
2021/07/09 08:27:44;;;;;;;11.90;8.52;;;;;;;20.60;64.63;102217.84;5073129;28;20361;-40
2021/07/09 08:30:10;;;;;;;;;;;;;;;20.75;64.50;102214.38;5073865;28;20029;-40
2021/07/09 08:32:35;;;;;;;12.15;8.45;;;;;;;20.51;63.33;102206.53;5073949;28;19967;-41
2021/07/09 08:35:02;;;;;;;14.00;8.13;;;;;;;20.68;63.49;102216.50;5073425;28;20028;-40
2021/07/09 08:37:27;;;;;;;11.73;7.70;;;;;;;20.92;64.58;102205.91;5073597;28;20330;-40
2021/07/09 08:39:53;;;;;;;;;;;;;;;21.22;63.96;102206.03;5073501;28;20089;-40
2021/07/09 08:42:18;;;;;;;9.37;6.63;;;;;;;21.18;61.61;102206.84;5073373;28;19915;-41
2021/07/09 08:44:43;;;;;;;;;;;;;;;21.48;62.53;102209.75;5073738;28;20267;-41
2021/07/09 08:47:09;;;;;;;10.83;8.17;;;;;;;21.31;60.25;102207.22;5073082;28;19915;-40
2021/07/09 08:49:34;;;;;;;11.63;7.63;;;;;;;21.17;61.16;102206.03;5072974;28;20020;-40
2021/07/09 08:52:00;;;;;;;11.18;7.72;;;;;;;21.18;61.12;102207.72;5074348;28;20035;-40
2021/07/09 08:54:25;;;;;;;10.45;8.43;;;;;;;21.03;61.17;102211.22;5076387;28;20028;-40
2021/07/09 08:56:51;;;;;;;11.63;8.63;;;;;;;21.19;61.10;102206.59;5077128;28;20028;-41
2021/07/09 08:59:19;;;;;;;17.52;9.95;;;;;;;21.29;60.57;102201.13;5076199;28;20462;-41
2021/07/09 09:01:52;;;;;;;10.05;8.10;;;;;;;21.57;60.83;102196.28;5076687;28;20032;-41
2021/07/09 09:04:32;;;;;;;11.63;9.07;;;;;;;21.65;60.96;102195.75;5077226;28;20372;-41
2021/07/09 09:07:08;;;;;;;14.98;10.23;;;;;;;21.66;60.91;102196.56;5076694;28;20070;-41
2021/07/09 09:09:36;;;;;;;14.93;10.35;;;;;;;21.57;60.66;102205.38;5076885;28;20051;-41
2021/07/09 09:12:13;;;;;;;12.32;9.68;;;;;;;21.48;61.67;102206.19;5076073;28;20082;-41
2021/07/09 09:14:51;;;;;;;12.07;9.93;;;;;;;21.60;61.85;102192.97;5076518;28;20048;-41
2021/07/09 09:17:32;;;;;;;14.30;10.13;;;;;;;21.94;60.68;102192.47;5076773;28;20142;-40
2021/07/09 09:20:16;;;;;;;12.80;10.60;;;;;;;22.04;59.80;102201.56;5075953;28;20021;-40
2021/07/09 09:22:50;;;;;;;15.13;11.40;;;;;;;21.78;59.95;102199.91;5075869;28;20023;-41
2021/07/09 09:25:16;;;;;;;13.60;10.63;;;;;;;21.68;60.58;102186.13;5076244;28;20509;-41
2021/07/09 09:27:42;;;;;;;17.45;12.65;;;;;;;21.63;60.51;102186.94;5076044;28;20457;-41
2021/07/09 09:30:13;;;;;;;14.13;11.43;;;;;;;21.79;61.28;102185.84;5076126;28;20031;-41
2021/07/09 09:32:46;;;;;;;15.40;10.90;;;;;;;21.74;60.56;102188.59;5076212;28;20469;-41
2021/07/09 09:35:12;;;;;;;16.70;11.98;;;;;;;21.59;60.72;102185.81;5075433;28;20024;-41
2021/07/09 09:37:49;;;;;;;17.90;12.07;;;;;;;21.59;61.02;102177.56;5076361;28;20025;-41
2021/07/09 09:40:16;;;;;;;17.60;14.02;;;;;;;21.76;61.72;102186.38;5075418;28;20020;-40
2021/07/09 09:42:43;;;;;;;17.75;13.82;;;;;;;21.90;60.52;102175.66;5075749;28;20021;-40
2021/07/09 09:45:09;;;;;;;18.60;15.20;;;;;;;22.01;61.00;102173.72;5076240;28;20021;-41
2021/07/09 09:47:36;;;;;;;17.42;13.43;;;;;;;22.08;59.32;102172.34;5075609;28;20341;-40
2021/07/09 09:50:18;;;;;;;15.02;13.43;;;;;;;22.38;60.00;102173.47;5075948;28;20027;-41
2021/07/09 09:52:53;;;;;;;18.33;14.15;;;;;;;22.52;58.28;102165.44;5076415;28;20411;-41
2021/07/09 09:55:18;;;;;;;19.23;16.77;;;;;;;22.79;57.15;102168.69;5075797;28;20027;-41
2021/07/09 09:57:44;;;;;;;19.83;17.83;;;;;;;22.83;55.52;102175.25;5076019;28;20432;-41
2021/07/09 10:00:28;;;;;;;21.92;19.50;;;;;;;23.06;56.55;102170.22;5075349;28;20444;-41
2021/07/09 10:02:53;;;;;;;22.20;20.08;;;;;;;23.06;55.73;102165.53;5076352;28;20017;-41
2021/07/09 10:05:19;;;;;;;23.67;21.27;;;;;;;23.15;56.41;102164.97;5074851;28;20480;-41
2021/07/09 10:07:45;;;;;;;20.25;18.17;;;;;;;23.17;54.85;102171.00;5075515;28;20029;-41
2021/07/09 10:10:13;;;;;;;23.20;21.00;;;;;;;23.08;53.95;102168.00;5075197;28;20104;-41
2021/07/09 10:12:41;;;;;;;20.50;18.45;;;;;;;23.08;53.71;102166.09;5075756;28;20052;-41
2021/07/09 10:15:07;;;;;;;23.40;20.98;;;;;;;23.11;54.40;102160.00;5075647;28;20346;-41
2021/07/09 10:17:34;;;;;;;20.83;18.55;;;;;;;23.24;54.68;102155.81;5074687;28;20012;-41
2021/07/09 10:20:01;;;;;;;21.35;19.25;;;;;;;23.38;53.17;102156.00;5075506;28;20025;-41
2021/07/09 10:22:26;;;;;;;22.30;20.10;;;;;;;23.48;52.73;102157.88;5075159;28;20043;-41
2021/07/09 10:24:54;;;;;;;21.65;19.40;;;;;;;23.48;53.59;102152.34;5075036;28;20107;-41
2021/07/09 10:27:23;;;;;;;23.17;20.60;;;;;;;23.37;54.48;102148.81;5075028;28;20017;-41
2021/07/09 10:29:49;;;;;;;20.75;18.55;;;;;;;23.60;55.78;102153.63;5074821;28;20099;-41
2021/07/09 10:32:39;;;;;;;18.65;16.85;;;;;;;23.73;54.18;102152.19;5074658;28;20024;-41
2021/07/09 10:35:07;;;;;;;20.33;18.20;;;;;;;23.77;53.38;102149.69;5075490;28;20016;-41
2021/07/09 10:37:33;;;;;;;21.17;18.95;;;;;;;23.81;54.72;102151.53;5074930;28;20028;-41
2021/07/09 10:40:10;;;;;;;21.02;18.85;;;;;;;24.06;54.01;102155.19;5074429;28;20016;-41
2021/07/09 10:42:47;;;;;;;19.48;17.38;;;;;;;24.29;54.37;102148.91;5075066;28;20031;-41
2021/07/09 10:45:18;;;;;;;17.70;15.95;;;;;;;24.33;51.36;102149.97;5074174;28;20021;-41
2021/07/09 10:47:45;;;;;;;16.55;14.68;;;;;;;24.47;50.81;102139.06;5074477;28;20031;-41
2021/07/09 10:50:16;;;;;;;14.07;12.68;;;;;;;24.60;49.33;102143.09;5074364;28;20066;-40
2021/07/09 10:52:50;;;;;;;14.80;13.15;;;;;;;24.58;49.79;102135.06;5074659;28;20025;-40
2021/07/09 10:55:24;;;;;;;13.02;11.52;;;;;;;24.54;49.53;102142.28;5075070;28;20078;-41
2021/07/09 10:58:08;;;;;;;15.73;12.68;;;;;;;24.56;50.05;102136.50;5074193;28;20043;-41
2021/07/09 11:01:03;;;;;;;14.95;13.38;;;;;;;24.84;50.73;102129.22;5074665;28;20337;-41
2021/07/09 11:03:37;;;;;;;15.65;14.07;;;;;;;24.93;49.83;102135.75;5074751;28;20027;-41
2021/07/09 11:06:08;;;;;;;17.95;15.35;;;;;;;25.06;49.56;102128.66;5074116;28;20031;-41
2021/07/09 11:08:34;;;;;;;20.65;14.80;;;;;;;25.14;49.74;102119.72;5074001;28;20460;-41
2021/07/09 11:10:59;;;;;;;15.52;13.93;;;;;;;24.77;48.71;102129.59;5074040;28;20146;-41
2021/07/09 11:13:39;;;;;;;17.60;14.07;;;;;;;24.45;50.32;102138.56;5073933;28;20027;-40
2021/07/09 11:16:18;;;;;;;15.23;13.63;;;;;;;24.18;50.68;102136.31;5073876;28;20073;-40
2021/07/09 11:18:59;;;;;;;14.88;12.88;;;;;;;23.86;51.71;102140.47;5074162;28;20452;-40
2021/07/09 11:21:30;;;;;;;16.17;13.23;;;;;;;23.72;51.74;102135.88;5073960;28;20059;-41
2021/07/09 11:24:11;;;;;;;16.30;14.27;;;;;;;23.60;53.45;102141.75;5073842;28;20027;-41
2021/07/09 11:26:45;;;;;;;14.82;12.88;;;;;;;23.84;51.70;102139.94;5073491;28;20049;-40
2021/07/09 11:29:41;;;;;;;13.38;11.98;;;;;;;24.23;52.32;102133.50;5073528;28;20453;-41
2021/07/09 11:32:18;;;;;;;11.40;10.20;;;;;;;24.39;50.35;102123.94;5072911;28;20044;-41
2021/07/09 11:34:55;;;;;;;10.88;9.18;;;;;;;24.56;49.21;102130.97;5074293;28;20024;-40